sensor_id;sensor_type;location;lat;lon;timestamp;temperature;humidity
37844;DHT22;63793;57.632;18.292;2023-05-27T00:00:49;7.50;99.90
37844;DHT22;63793;57.632;18.292;2023-05-27T00:03:16;7.40;99.90
37844;DHT22;63793;57.632;18.292;2023-05-27T00:05:44;7.40;99.90
37844;DHT22;63793;57.632;18.292;2023-05-27T00:08:11;7.40;99.90
37844;DHT22;63793;57.632;18.292;2023-05-27T00:10:39;7.40;99.90
37844;DHT22;63793;57.632;18.292;2023-05-27T00:13:05;7.30;99.90
37844;DHT22;63793;57.632;18.292;2023-05-27T00:15:32;7.30;99.90
37844;DHT22;63793;57.632;18.292;2023-05-27T00:17:59;7.30;99.90
37844;DHT22;63793;57.632;18.292;2023-05-27T00:20:29;7.30;99.90
37844;DHT22;63793;57.632;18.292;2023-05-27T00:22:59;7.30;99.90
37844;DHT22;63793;57.632;18.292;2023-05-27T00:25:26;7.20;99.90
37844;DHT22;63793;57.632;18.292;2023-05-27T00:27:54;7.20;99.90
37844;DHT22;63793;57.632;18.292;2023-05-27T00:30:21;7.20;99.90
37844;DHT22;63793;57.632;18.292;2023-05-27T00:32:48;7.10;99.90
37844;DHT22;63793;57.632;18.292;2023-05-27T00:35:16;7.10;99.90
37844;DHT22;63793;57.632;18.292;2023-05-27T00:37:43;7.00;99.90
37844;DHT22;63793;57.632;18.292;2023-05-27T00:40:11;7.00;99.90
37844;DHT22;63793;57.632;18.292;2023-05-27T00:42:38;7.00;99.90
37844;DHT22;63793;57.632;18.292;2023-05-27T00:45:05;7.00;99.90
37844;DHT22;63793;57.632;18.292;2023-05-27T00:47:33;7.00;99.90
37844;DHT22;63793;57.632;18.292;2023-05-27T00:50:02;7.00;99.90
37844;DHT22;63793;57.632;18.292;2023-05-27T00:52:30;7.00;99.90
37844;DHT22;63793;57.632;18.292;2023-05-27T00:54:57;6.90;99.90
37844;DHT22;63793;57.632;18.292;2023-05-27T00:57:26;6.90;99.90
37844;DHT22;63793;57.632;18.292;2023-05-27T00:59:53;6.90;99.90
37844;DHT22;63793;57.632;18.292;2023-05-27T01:02:20;6.80;99.90
37844;DHT22;63793;57.632;18.292;2023-05-27T01:04:47;6.80;99.90
37844;DHT22;63793;57.632;18.292;2023-05-27T01:07:25;6.80;99.90
37844;DHT22;63793;57.632;18.292;2023-05-27T01:10:15;6.80;99.90
37844;DHT22;63793;57.632;18.292;2023-05-27T01:13:01;6.80;99.90
37844;DHT22;63793;57.632;18.292;2023-05-27T01:15:33;6.70;99.90
37844;DHT22;63793;57.632;18.292;2023-05-27T01:18:02;6.70;99.90
37844;DHT22;63793;57.632;18.292;2023-05-27T01:20:30;6.70;99.90
37844;DHT22;63793;57.632;18.292;2023-05-27T01:22:58;6.70;99.90
37844;DHT22;63793;57.632;18.292;2023-05-27T01:25:26;6.70;99.90
37844;DHT22;63793;57.632;18.292;2023-05-27T01:27:54;6.70;99.90
37844;DHT22;63793;57.632;18.292;2023-05-27T01:30:23;6.70;99.90
37844;DHT22;63793;57.632;18.292;2023-05-27T01:33:06;6.60;99.90
37844;DHT22;63793;57.632;18.292;2023-05-27T01:35:51;6.60;99.90
37844;DHT22;63793;57.632;18.292;2023-05-27T01:38:21;6.60;99.90
37844;DHT22;63793;57.632;18.292;2023-05-27T01:40:51;6.60;99.90
37844;DHT22;63793;57.632;18.292;2023-05-27T01:43:19;6.60;99.90
37844;DHT22;63793;57.632;18.292;2023-05-27T01:45:47;6.60;99.90
37844;DHT22;63793;57.632;18.292;2023-05-27T01:48:14;6.60;99.90
37844;DHT22;63793;57.632;18.292;2023-05-27T01:50:41;6.60;99.90
37844;DHT22;63793;57.632;18.292;2023-05-27T01:53:10;6.60;99.90
37844;DHT22;63793;57.632;18.292;2023-05-27T01:55:38;6.50;99.90
37844;DHT22;63793;57.632;18.292;2023-05-27T01:58:05;6.50;99.90
37844;DHT22;63793;57.632;18.292;2023-05-27T02:00:32;6.50;99.90
37844;DHT22;63793;57.632;18.292;2023-05-27T02:02:59;6.50;99.90
37844;DHT22;63793;57.632;18.292;2023-05-27T02:05:26;6.50;99.90
37844;DHT22;63793;57.632;18.292;2023-05-27T02:07:54;6.50;99.90
37844;DHT22;63793;57.632;18.292;2023-05-27T02:10:24;6.40;99.90
37844;DHT22;63793;57.632;18.292;2023-05-27T02:12:51;6.30;99.90
37844;DHT22;63793;57.632;18.292;2023-05-27T02:15:19;6.30;99.90
37844;DHT22;63793;57.632;18.292;2023-05-27T02:17:50;6.20;99.90
37844;DHT22;63793;57.632;18.292;2023-05-27T02:20:23;6.20;99.90
37844;DHT22;63793;57.632;18.292;2023-05-27T02:22:51;6.20;99.90
37844;DHT22;63793;57.632;18.292;2023-05-27T02:25:18;6.20;99.90
37844;DHT22;63793;57.632;18.292;2023-05-27T02:27:45;6.20;99.90
37844;DHT22;63793;57.632;18.292;2023-05-27T02:30:15;6.20;99.90
37844;DHT22;63793;57.632;18.292;2023-05-27T02:32:43;6.10;99.90
37844;DHT22;63793;57.632;18.292;2023-05-27T02:35:15;6.10;99.90
37844;DHT22;63793;57.632;18.292;2023-05-27T02:37:42;6.10;99.90
37844;DHT22;63793;57.632;18.292;2023-05-27T02:40:09;6.10;99.90
37844;DHT22;63793;57.632;18.292;2023-05-27T02:42:37;6.10;99.90
37844;DHT22;63793;57.632;18.292;2023-05-27T02:45:05;6.10;99.90
37844;DHT22;63793;57.632;18.292;2023-05-27T02:47:34;6.10;99.90
37844;DHT22;63793;57.632;18.292;2023-05-27T02:50:00;6.00;99.90
37844;DHT22;63793;57.632;18.292;2023-05-27T02:52:28;6.00;99.90
37844;DHT22;63793;57.632;18.292;2023-05-27T02:54:55;6.00;99.90
37844;DHT22;63793;57.632;18.292;2023-05-27T02:57:22;6.00;99.90
37844;DHT22;63793;57.632;18.292;2023-05-27T02:59:49;6.00;99.90
37844;DHT22;63793;57.632;18.292;2023-05-27T03:02:16;6.00;99.90
37844;DHT22;63793;57.632;18.292;2023-05-27T03:04:43;6.00;99.90
37844;DHT22;63793;57.632;18.292;2023-05-27T03:07:11;6.00;99.90
37844;DHT22;63793;57.632;18.292;2023-05-27T03:09:38;6.10;99.90
37844;DHT22;63793;57.632;18.292;2023-05-27T03:12:05;6.10;99.90
37844;DHT22;63793;57.632;18.292;2023-05-27T03:14:32;6.10;99.90
37844;DHT22;63793;57.632;18.292;2023-05-27T03:16:59;6.10;99.90
37844;DHT22;63793;57.632;18.292;2023-05-27T03:19:26;6.10;99.90
37844;DHT22;63793;57.632;18.292;2023-05-27T03:21:53;6.20;99.90
37844;DHT22;63793;57.632;18.292;2023-05-27T03:24:20;6.10;99.90
37844;DHT22;63793;57.632;18.292;2023-05-27T03:26:47;6.10;99.90
37844;DHT22;63793;57.632;18.292;2023-05-27T03:29:14;6.20;99.90
37844;DHT22;63793;57.632;18.292;2023-05-27T03:31:42;6.20;99.90
37844;DHT22;63793;57.632;18.292;2023-05-27T03:34:14;6.30;99.90
37844;DHT22;63793;57.632;18.292;2023-05-27T03:36:41;6.30;99.90
37844;DHT22;63793;57.632;18.292;2023-05-27T03:39:10;6.30;99.90
37844;DHT22;63793;57.632;18.292;2023-05-27T03:41:41;6.40;99.90
37844;DHT22;63793;57.632;18.292;2023-05-27T03:44:11;6.50;99.90
37844;DHT22;63793;57.632;18.292;2023-05-27T03:46:38;6.60;99.90
37844;DHT22;63793;57.632;18.292;2023-05-27T03:49:05;6.60;99.90
37844;DHT22;63793;57.632;18.292;2023-05-27T03:51:32;6.70;99.90
37844;DHT22;63793;57.632;18.292;2023-05-27T03:53:59;6.70;99.90
37844;DHT22;63793;57.632;18.292;2023-05-27T03:56:26;6.80;99.90
37844;DHT22;63793;57.632;18.292;2023-05-27T03:58:53;6.90;99.90
37844;DHT22;63793;57.632;18.292;2023-05-27T04:01:20;7.10;99.90
37844;DHT22;63793;57.632;18.292;2023-05-27T04:03:47;7.20;99.90
37844;DHT22;63793;57.632;18.292;2023-05-27T04:06:15;7.30;99.90
37844;DHT22;63793;57.632;18.292;2023-05-27T04:08:42;7.50;99.90
37844;DHT22;63793;57.632;18.292;2023-05-27T04:11:11;7.70;99.90
37844;DHT22;63793;57.632;18.292;2023-05-27T04:13:40;7.90;99.90
37844;DHT22;63793;57.632;18.292;2023-05-27T04:16:07;8.10;99.90
37844;DHT22;63793;57.632;18.292;2023-05-27T04:18:35;8.30;99.90
37844;DHT22;63793;57.632;18.292;2023-05-27T04:21:02;8.50;99.90
37844;DHT22;63793;57.632;18.292;2023-05-27T04:23:31;8.60;99.90
37844;DHT22;63793;57.632;18.292;2023-05-27T04:25:58;8.80;99.90
37844;DHT22;63793;57.632;18.292;2023-05-27T04:28:30;9.00;99.90
37844;DHT22;63793;57.632;18.292;2023-05-27T04:30:57;9.30;99.90
37844;DHT22;63793;57.632;18.292;2023-05-27T04:33:33;9.50;99.90
37844;DHT22;63793;57.632;18.292;2023-05-27T04:35:59;9.60;99.90
37844;DHT22;63793;57.632;18.292;2023-05-27T04:38:30;9.80;99.90
37844;DHT22;63793;57.632;18.292;2023-05-27T04:41:03;9.90;99.90
37844;DHT22;63793;57.632;18.292;2023-05-27T04:44:09;9.90;99.90
37844;DHT22;63793;57.632;18.292;2023-05-27T04:46:44;10.10;99.90
37844;DHT22;63793;57.632;18.292;2023-05-27T04:49:11;10.20;99.90
37844;DHT22;63793;57.632;18.292;2023-05-27T04:51:38;10.30;99.90
37844;DHT22;63793;57.632;18.292;2023-05-27T04:54:06;10.30;99.90
37844;DHT22;63793;57.632;18.292;2023-05-27T04:56:34;10.40;99.90
37844;DHT22;63793;57.632;18.292;2023-05-27T04:59:02;10.40;99.90
37844;DHT22;63793;57.632;18.292;2023-05-27T05:01:31;10.40;99.90
37844;DHT22;63793;57.632;18.292;2023-05-27T05:04:23;10.40;99.90
37844;DHT22;63793;57.632;18.292;2023-05-27T05:06:54;10.50;99.90
37844;DHT22;63793;57.632;18.292;2023-05-27T05:09:23;10.50;99.90
37844;DHT22;63793;57.632;18.292;2023-05-27T05:11:51;10.60;99.90
37844;DHT22;63793;57.632;18.292;2023-05-27T05:14:18;10.60;99.90
37844;DHT22;63793;57.632;18.292;2023-05-27T05:16:45;10.60;99.90
37844;DHT22;63793;57.632;18.292;2023-05-27T05:19:13;10.70;99.90
37844;DHT22;63793;57.632;18.292;2023-05-27T05:21:41;10.80;99.90
37844;DHT22;63793;57.632;18.292;2023-05-27T05:24:10;10.70;99.90
37844;DHT22;63793;57.632;18.292;2023-05-27T05:26:38;10.70;99.90
37844;DHT22;63793;57.632;18.292;2023-05-27T05:29:05;10.70;99.90
37844;DHT22;63793;57.632;18.292;2023-05-27T05:31:32;10.80;99.90
37844;DHT22;63793;57.632;18.292;2023-05-27T05:34:00;10.80;99.90
37844;DHT22;63793;57.632;18.292;2023-05-27T05:36:29;10.80;99.90
37844;DHT22;63793;57.632;18.292;2023-05-27T05:39:00;10.90;99.90
37844;DHT22;63793;57.632;18.292;2023-05-27T05:41:27;10.90;99.90
37844;DHT22;63793;57.632;18.292;2023-05-27T05:43:54;10.90;99.90
37844;DHT22;63793;57.632;18.292;2023-05-27T05:46:21;11.00;99.90
37844;DHT22;63793;57.632;18.292;2023-05-27T05:48:52;11.10;99.90
37844;DHT22;63793;57.632;18.292;2023-05-27T05:51:29;11.10;99.90
37844;DHT22;63793;57.632;18.292;2023-05-27T05:53:58;11.10;99.90
37844;DHT22;63793;57.632;18.292;2023-05-27T05:56:27;11.20;99.90
37844;DHT22;63793;57.632;18.292;2023-05-27T05:58:54;11.30;99.90
37844;DHT22;63793;57.632;18.292;2023-05-27T06:01:23;11.40;99.90
37844;DHT22;63793;57.632;18.292;2023-05-27T06:03:50;11.40;99.90
37844;DHT22;63793;57.632;18.292;2023-05-27T06:06:29;11.40;99.90
37844;DHT22;63793;57.632;18.292;2023-05-27T06:09:24;11.50;99.90
37844;DHT22;63793;57.632;18.292;2023-05-27T06:11:55;11.60;99.90
37844;DHT22;63793;57.632;18.292;2023-05-27T06:14:23;11.70;99.90
37844;DHT22;63793;57.632;18.292;2023-05-27T06:16:52;11.80;99.90
37844;DHT22;63793;57.632;18.292;2023-05-27T06:19:19;11.90;99.90
37844;DHT22;63793;57.632;18.292;2023-05-27T06:21:46;11.90;99.90
37844;DHT22;63793;57.632;18.292;2023-05-27T06:24:32;11.90;99.90
37844;DHT22;63793;57.632;18.292;2023-05-27T06:27:10;11.90;99.90
37844;DHT22;63793;57.632;18.292;2023-05-27T06:29:38;12.00;99.90
37844;DHT22;63793;57.632;18.292;2023-05-27T06:32:05;12.00;99.90
37844;DHT22;63793;57.632;18.292;2023-05-27T06:34:32;12.10;99.90
37844;DHT22;63793;57.632;18.292;2023-05-27T06:36:59;12.10;99.90
37844;DHT22;63793;57.632;18.292;2023-05-27T06:39:26;12.20;99.90
37844;DHT22;63793;57.632;18.292;2023-05-27T06:41:53;12.20;99.90
37844;DHT22;63793;57.632;18.292;2023-05-27T06:44:43;12.20;99.90
37844;DHT22;63793;57.632;18.292;2023-05-27T06:47:15;12.30;99.90
37844;DHT22;63793;57.632;18.292;2023-05-27T06:49:42;12.40;99.90
37844;DHT22;63793;57.632;18.292;2023-05-27T06:52:10;12.40;99.90
37844;DHT22;63793;57.632;18.292;2023-05-27T06:55:19;12.40;99.90
37844;DHT22;63793;57.632;18.292;2023-05-27T06:58:05;12.50;99.90
37844;DHT22;63793;57.632;18.292;2023-05-27T07:00:55;12.50;99.90
37844;DHT22;63793;57.632;18.292;2023-05-27T07:03:41;12.60;99.90
37844;DHT22;63793;57.632;18.292;2023-05-27T07:06:10;12.60;99.90
37844;DHT22;63793;57.632;18.292;2023-05-27T07:08:45;12.70;99.90
37844;DHT22;63793;57.632;18.292;2023-05-27T07:11:18;12.80;99.90
37844;DHT22;63793;57.632;18.292;2023-05-27T07:13:45;12.80;99.90
37844;DHT22;63793;57.632;18.292;2023-05-27T07:16:13;12.90;99.90
37844;DHT22;63793;57.632;18.292;2023-05-27T07:18:40;12.90;99.90
37844;DHT22;63793;57.632;18.292;2023-05-27T07:21:08;13.00;99.90
37844;DHT22;63793;57.632;18.292;2023-05-27T07:23:35;13.10;99.90
37844;DHT22;63793;57.632;18.292;2023-05-27T07:26:14;13.10;99.90
37844;DHT22;63793;57.632;18.292;2023-05-27T07:28:41;13.20;99.90
37844;DHT22;63793;57.632;18.292;2023-05-27T07:31:19;13.30;99.10
37844;DHT22;63793;57.632;18.292;2023-05-27T07:33:53;13.40;97.60
37844;DHT22;63793;57.632;18.292;2023-05-27T07:36:21;13.50;97.10
37844;DHT22;63793;57.632;18.292;2023-05-27T07:38:48;13.60;96.80
37844;DHT22;63793;57.632;18.292;2023-05-27T07:41:15;13.70;95.90
37844;DHT22;63793;57.632;18.292;2023-05-27T07:43:43;13.70;94.10
37844;DHT22;63793;57.632;18.292;2023-05-27T07:46:09;13.80;93.60
37844;DHT22;63793;57.632;18.292;2023-05-27T07:48:39;13.80;92.90
37844;DHT22;63793;57.632;18.292;2023-05-27T07:51:07;13.90;94.40
37844;DHT22;63793;57.632;18.292;2023-05-27T07:53:36;13.90;97.30
37844;DHT22;63793;57.632;18.292;2023-05-27T07:56:03;13.70;98.20
37844;DHT22;63793;57.632;18.292;2023-05-27T07:58:30;13.70;98.30
37844;DHT22;63793;57.632;18.292;2023-05-27T08:01:08;13.70;97.20
37844;DHT22;63793;57.632;18.292;2023-05-27T08:03:35;13.70;97.30
37844;DHT22;63793;57.632;18.292;2023-05-27T08:06:21;13.60;99.90
37844;DHT22;63793;57.632;18.292;2023-05-27T08:09:08;13.60;99.90
37844;DHT22;63793;57.632;18.292;2023-05-27T08:12:07;13.60;99.90
37844;DHT22;63793;57.632;18.292;2023-05-27T08:14:48;13.60;99.90
37844;DHT22;63793;57.632;18.292;2023-05-27T08:17:28;13.50;99.90
37844;DHT22;63793;57.632;18.292;2023-05-27T08:20:09;13.60;99.90
37844;DHT22;63793;57.632;18.292;2023-05-27T08:22:56;13.60;99.90
37844;DHT22;63793;57.632;18.292;2023-05-27T08:25:42;13.60;99.90
37844;DHT22;63793;57.632;18.292;2023-05-27T08:28:30;13.60;99.90
37844;DHT22;63793;57.632;18.292;2023-05-27T08:31:24;13.70;99.90
37844;DHT22;63793;57.632;18.292;2023-05-27T08:33:54;13.80;99.90
37844;DHT22;63793;57.632;18.292;2023-05-27T08:36:22;13.70;99.90
37844;DHT22;63793;57.632;18.292;2023-05-27T08:38:51;13.80;99.90
37844;DHT22;63793;57.632;18.292;2023-05-27T08:41:26;13.90;98.60
37844;DHT22;63793;57.632;18.292;2023-05-27T08:43:57;14.00;99.90
37844;DHT22;63793;57.632;18.292;2023-05-27T08:46:48;14.00;99.90
37844;DHT22;63793;57.632;18.292;2023-05-27T08:49:16;13.90;99.90
37844;DHT22;63793;57.632;18.292;2023-05-27T08:51:45;14.00;99.90
37844;DHT22;63793;57.632;18.292;2023-05-27T08:54:12;13.80;99.90
37844;DHT22;63793;57.632;18.292;2023-05-27T08:56:40;13.60;99.90
37844;DHT22;63793;57.632;18.292;2023-05-27T08:59:10;13.60;99.90
37844;DHT22;63793;57.632;18.292;2023-05-27T09:01:39;13.80;99.90
37844;DHT22;63793;57.632;18.292;2023-05-27T09:04:07;13.70;99.90
37844;DHT22;63793;57.632;18.292;2023-05-27T09:06:34;13.70;99.90
37844;DHT22;63793;57.632;18.292;2023-05-27T09:09:01;13.80;99.90
37844;DHT22;63793;57.632;18.292;2023-05-27T09:11:28;13.90;99.90
37844;DHT22;63793;57.632;18.292;2023-05-27T09:13:57;14.00;99.90
37844;DHT22;63793;57.632;18.292;2023-05-27T09:16:24;14.00;99.90
37844;DHT22;63793;57.632;18.292;2023-05-27T09:18:51;14.00;99.90
37844;DHT22;63793;57.632;18.292;2023-05-27T09:21:18;14.00;99.90
37844;DHT22;63793;57.632;18.292;2023-05-27T09:23:45;14.10;99.90
37844;DHT22;63793;57.632;18.292;2023-05-27T09:26:13;14.20;99.90
37844;DHT22;63793;57.632;18.292;2023-05-27T09:28:40;14.30;99.90
37844;DHT22;63793;57.632;18.292;2023-05-27T09:31:08;14.20;99.90
37844;DHT22;63793;57.632;18.292;2023-05-27T09:33:38;14.30;99.90
37844;DHT22;63793;57.632;18.292;2023-05-27T09:36:06;14.40;99.90
37844;DHT22;63793;57.632;18.292;2023-05-27T09:38:35;14.40;99.90
37844;DHT22;63793;57.632;18.292;2023-05-27T09:41:03;14.40;99.90
37844;DHT22;63793;57.632;18.292;2023-05-27T09:43:30;14.60;99.90
37844;DHT22;63793;57.632;18.292;2023-05-27T09:46:02;14.70;99.30
37844;DHT22;63793;57.632;18.292;2023-05-27T09:48:30;14.70;98.70
37844;DHT22;63793;57.632;18.292;2023-05-27T09:51:00;14.70;98.20
37844;DHT22;63793;57.632;18.292;2023-05-27T09:53:28;14.70;99.10
37844;DHT22;63793;57.632;18.292;2023-05-27T09:55:56;14.90;99.70
37844;DHT22;63793;57.632;18.292;2023-05-27T09:58:24;15.00;98.40
37844;DHT22;63793;57.632;18.292;2023-05-27T10:00:51;15.10;98.10
37844;DHT22;63793;57.632;18.292;2023-05-27T10:03:22;15.10;98.40
37844;DHT22;63793;57.632;18.292;2023-05-27T10:05:51;15.10;96.40
37844;DHT22;63793;57.632;18.292;2023-05-27T10:08:18;15.10;96.80
37844;DHT22;63793;57.632;18.292;2023-05-27T10:10:49;15.20;95.40
37844;DHT22;63793;57.632;18.292;2023-05-27T10:13:18;15.20;94.90
37844;DHT22;63793;57.632;18.292;2023-05-27T10:15:51;15.10;95.60
37844;DHT22;63793;57.632;18.292;2023-05-27T10:18:29;15.20;96.20
37844;DHT22;63793;57.632;18.292;2023-05-27T10:20:57;15.30;96.10
37844;DHT22;63793;57.632;18.292;2023-05-27T10:23:28;15.50;92.90
37844;DHT22;63793;57.632;18.292;2023-05-27T10:26:08;15.50;94.10
37844;DHT22;63793;57.632;18.292;2023-05-27T10:28:37;15.50;93.60
37844;DHT22;63793;57.632;18.292;2023-05-27T10:31:11;15.70;93.00
37844;DHT22;63793;57.632;18.292;2023-05-27T10:33:47;15.80;92.80
37844;DHT22;63793;57.632;18.292;2023-05-27T10:36:23;15.90;91.70
37844;DHT22;63793;57.632;18.292;2023-05-27T10:38:57;16.10;91.50
37844;DHT22;63793;57.632;18.292;2023-05-27T10:41:25;16.30;91.60
37844;DHT22;63793;57.632;18.292;2023-05-27T10:43:58;16.60;92.20
37844;DHT22;63793;57.632;18.292;2023-05-27T10:46:26;16.80;89.70
37844;DHT22;63793;57.632;18.292;2023-05-27T10:48:53;16.70;85.00
37844;DHT22;63793;57.632;18.292;2023-05-27T10:51:31;16.70;85.40
37844;DHT22;63793;57.632;18.292;2023-05-27T10:54:03;16.60;86.00
37844;DHT22;63793;57.632;18.292;2023-05-27T10:56:51;16.60;84.00
37844;DHT22;63793;57.632;18.292;2023-05-27T10:59:22;16.80;82.30
37844;DHT22;63793;57.632;18.292;2023-05-27T11:01:53;16.90;79.70
37844;DHT22;63793;57.632;18.292;2023-05-27T11:04:21;17.00;82.30
37844;DHT22;63793;57.632;18.292;2023-05-27T11:07:00;17.10;81.30
37844;DHT22;63793;57.632;18.292;2023-05-27T11:09:51;17.20;81.70
37844;DHT22;63793;57.632;18.292;2023-05-27T11:12:20;17.10;81.60
37844;DHT22;63793;57.632;18.292;2023-05-27T11:14:54;17.30;80.90
37844;DHT22;63793;57.632;18.292;2023-05-27T11:17:23;17.40;80.00
37844;DHT22;63793;57.632;18.292;2023-05-27T11:19:50;17.40;79.80
37844;DHT22;63793;57.632;18.292;2023-05-27T11:22:18;17.40;79.00
37844;DHT22;63793;57.632;18.292;2023-05-27T11:25:02;17.40;78.50
37844;DHT22;63793;57.632;18.292;2023-05-27T11:27:36;17.40;77.40
37844;DHT22;63793;57.632;18.292;2023-05-27T11:30:10;17.20;77.10
37844;DHT22;63793;57.632;18.292;2023-05-27T11:32:40;17.30;77.50
37844;DHT22;63793;57.632;18.292;2023-05-27T11:35:17;17.20;78.20
37844;DHT22;63793;57.632;18.292;2023-05-27T11:37:46;17.30;78.30
37844;DHT22;63793;57.632;18.292;2023-05-27T11:40:15;17.30;77.10
37844;DHT22;63793;57.632;18.292;2023-05-27T11:42:45;17.30;76.70
37844;DHT22;63793;57.632;18.292;2023-05-27T11:45:18;17.30;76.70
37844;DHT22;63793;57.632;18.292;2023-05-27T11:47:45;17.50;78.10
37844;DHT22;63793;57.632;18.292;2023-05-27T11:50:21;17.80;76.60
37844;DHT22;63793;57.632;18.292;2023-05-27T11:52:51;17.90;76.20
37844;DHT22;63793;57.632;18.292;2023-05-27T11:55:19;18.10;74.80
37844;DHT22;63793;57.632;18.292;2023-05-27T11:57:46;18.30;74.20
37844;DHT22;63793;57.632;18.292;2023-05-27T12:00:13;18.30;73.50
37844;DHT22;63793;57.632;18.292;2023-05-27T12:02:40;18.40;69.60
37844;DHT22;63793;57.632;18.292;2023-05-27T12:05:09;18.40;70.40
37844;DHT22;63793;57.632;18.292;2023-05-27T12:07:47;18.60;72.00
37844;DHT22;63793;57.632;18.292;2023-05-27T12:10:16;18.70;72.00
37844;DHT22;63793;57.632;18.292;2023-05-27T12:12:43;18.90;67.60
37844;DHT22;63793;57.632;18.292;2023-05-27T12:15:11;19.10;70.60
37844;DHT22;63793;57.632;18.292;2023-05-27T12:17:38;19.30;68.80
37844;DHT22;63793;57.632;18.292;2023-05-27T12:20:05;19.30;70.60
37844;DHT22;63793;57.632;18.292;2023-05-27T12:22:33;19.40;68.20
37844;DHT22;63793;57.632;18.292;2023-05-27T12:24:59;19.30;71.00
37844;DHT22;63793;57.632;18.292;2023-05-27T12:27:26;19.20;72.50
37844;DHT22;63793;57.632;18.292;2023-05-27T12:29:53;19.40;71.00
37844;DHT22;63793;57.632;18.292;2023-05-27T12:32:20;19.80;68.30
37844;DHT22;63793;57.632;18.292;2023-05-27T12:34:48;19.80;66.80
37844;DHT22;63793;57.632;18.292;2023-05-27T12:37:14;20.00;66.70
37844;DHT22;63793;57.632;18.292;2023-05-27T12:39:42;20.10;66.90
37844;DHT22;63793;57.632;18.292;2023-05-27T12:42:09;20.00;66.50
37844;DHT22;63793;57.632;18.292;2023-05-27T12:44:36;20.30;67.20
37844;DHT22;63793;57.632;18.292;2023-05-27T12:47:03;20.30;66.90
37844;DHT22;63793;57.632;18.292;2023-05-27T12:49:30;20.30;65.60
37844;DHT22;63793;57.632;18.292;2023-05-27T12:51:58;20.20;65.60
37844;DHT22;63793;57.632;18.292;2023-05-27T12:54:25;20.30;66.20
37844;DHT22;63793;57.632;18.292;2023-05-27T12:56:53;20.50;67.10
37844;DHT22;63793;57.632;18.292;2023-05-27T12:59:20;20.60;65.70
37844;DHT22;63793;57.632;18.292;2023-05-27T13:01:47;20.40;66.00
37844;DHT22;63793;57.632;18.292;2023-05-27T13:04:14;20.40;65.80
37844;DHT22;63793;57.632;18.292;2023-05-27T13:06:41;20.20;64.60
37844;DHT22;63793;57.632;18.292;2023-05-27T13:09:08;20.40;66.30
37844;DHT22;63793;57.632;18.292;2023-05-27T13:11:35;20.50;65.20
37844;DHT22;63793;57.632;18.292;2023-05-27T13:14:02;20.60;66.70
37844;DHT22;63793;57.632;18.292;2023-05-27T13:16:29;20.80;65.90
37844;DHT22;63793;57.632;18.292;2023-05-27T13:18:56;20.90;68.50
37844;DHT22;63793;57.632;18.292;2023-05-27T13:21:23;21.10;67.60
37844;DHT22;63793;57.632;18.292;2023-05-27T13:23:51;21.10;66.40
37844;DHT22;63793;57.632;18.292;2023-05-27T13:26:19;21.20;67.50
37844;DHT22;63793;57.632;18.292;2023-05-27T13:28:47;21.30;65.50
37844;DHT22;63793;57.632;18.292;2023-05-27T13:31:14;21.10;66.10
37844;DHT22;63793;57.632;18.292;2023-05-27T13:33:41;21.10;65.00
37844;DHT22;63793;57.632;18.292;2023-05-27T13:36:08;21.30;66.20
37844;DHT22;63793;57.632;18.292;2023-05-27T13:38:35;21.30;66.20
37844;DHT22;63793;57.632;18.292;2023-05-27T13:41:02;21.30;65.60
37844;DHT22;63793;57.632;18.292;2023-05-27T13:43:29;21.30;65.80
37844;DHT22;63793;57.632;18.292;2023-05-27T13:45:56;21.10;64.80
37844;DHT22;63793;57.632;18.292;2023-05-27T13:48:23;21.20;65.70
37844;DHT22;63793;57.632;18.292;2023-05-27T13:50:50;21.30;66.10
37844;DHT22;63793;57.632;18.292;2023-05-27T13:53:17;21.40;65.30
37844;DHT22;63793;57.632;18.292;2023-05-27T13:55:44;21.60;65.50
37844;DHT22;63793;57.632;18.292;2023-05-27T13:58:12;21.50;63.70
37844;DHT22;63793;57.632;18.292;2023-05-27T14:00:38;21.60;64.70
37844;DHT22;63793;57.632;18.292;2023-05-27T14:03:05;21.70;63.40
37844;DHT22;63793;57.632;18.292;2023-05-27T14:05:32;21.60;64.00
37844;DHT22;63793;57.632;18.292;2023-05-27T14:08:01;21.40;63.70
37844;DHT22;63793;57.632;18.292;2023-05-27T14:10:32;21.20;64.70
37844;DHT22;63793;57.632;18.292;2023-05-27T14:12:59;21.20;63.10
37844;DHT22;63793;57.632;18.292;2023-05-27T14:15:27;21.10;64.30
37844;DHT22;63793;57.632;18.292;2023-05-27T14:17:56;21.10;65.30
37844;DHT22;63793;57.632;18.292;2023-05-27T14:20:23;20.80;63.50
37844;DHT22;63793;57.632;18.292;2023-05-27T14:22:50;20.90;64.70
37844;DHT22;63793;57.632;18.292;2023-05-27T14:25:17;20.80;63.40
37844;DHT22;63793;57.632;18.292;2023-05-27T14:27:46;20.80;63.10
37844;DHT22;63793;57.632;18.292;2023-05-27T14:30:13;21.00;64.10
37844;DHT22;63793;57.632;18.292;2023-05-27T14:32:40;21.00;64.20
37844;DHT22;63793;57.632;18.292;2023-05-27T14:35:08;21.10;63.50
37844;DHT22;63793;57.632;18.292;2023-05-27T14:37:35;20.90;63.40
37844;DHT22;63793;57.632;18.292;2023-05-27T14:40:02;20.90;63.70
37844;DHT22;63793;57.632;18.292;2023-05-27T14:42:29;21.00;64.60
37844;DHT22;63793;57.632;18.292;2023-05-27T14:44:56;21.10;64.90
37844;DHT22;63793;57.632;18.292;2023-05-27T14:47:23;21.10;63.50
37844;DHT22;63793;57.632;18.292;2023-05-27T14:49:50;21.10;62.50
37844;DHT22;63793;57.632;18.292;2023-05-27T14:52:17;20.90;62.30
37844;DHT22;63793;57.632;18.292;2023-05-27T14:54:44;21.10;62.80
37844;DHT22;63793;57.632;18.292;2023-05-27T14:57:11;21.00;62.80
37844;DHT22;63793;57.632;18.292;2023-05-27T14:59:38;21.00;62.50
37844;DHT22;63793;57.632;18.292;2023-05-27T15:02:04;21.20;63.30
37844;DHT22;63793;57.632;18.292;2023-05-27T15:04:31;21.20;62.40
37844;DHT22;63793;57.632;18.292;2023-05-27T15:06:58;21.20;62.90
37844;DHT22;63793;57.632;18.292;2023-05-27T15:09:25;21.30;62.60
37844;DHT22;63793;57.632;18.292;2023-05-27T15:11:53;21.20;62.50
37844;DHT22;63793;57.632;18.292;2023-05-27T15:14:20;21.00;61.60
37844;DHT22;63793;57.632;18.292;2023-05-27T15:16:47;21.10;61.00
37844;DHT22;63793;57.632;18.292;2023-05-27T15:19:13;21.00;61.90
37844;DHT22;63793;57.632;18.292;2023-05-27T15:21:40;21.00;62.20
37844;DHT22;63793;57.632;18.292;2023-05-27T15:24:07;21.10;60.90
37844;DHT22;63793;57.632;18.292;2023-05-27T15:26:34;20.80;61.70
37844;DHT22;63793;57.632;18.292;2023-05-27T15:29:01;21.00;62.50
37844;DHT22;63793;57.632;18.292;2023-05-27T15:31:28;21.10;61.60
37844;DHT22;63793;57.632;18.292;2023-05-27T15:33:56;21.30;61.00
37844;DHT22;63793;57.632;18.292;2023-05-27T15:36:23;21.30;60.80